Wheatfield, New York
Current Conditions -  °F | °C
As of 5:53 PM on Saturday 22 Nov 2014 (Local Time) from KIAG Reporting Station
Overcast Overcast  
Wind Chill: 37°   Ceiling: 1800
Heat Index: 44°   Visibility: 10mi
Dew Point: 39°   Wind: 16mph
Humidity: 82%   Direction: 220°SW
Pressure: 29.97"   Gusts: 23mph
Location:  43.1007°N, 78.9485°W
Report Text: KIAG 222253Z 22014G20KT 10SM OVC018 07/04 A2997 RMK AO2 SLP161 T00670039 $
Loading
Personal Weather Stations






























Interactive Weather Map New forecast layout! Learn more

10-Day Weather Forecast

Advertisements
Track Severe Weather on mobile